createdAt,value
2017-01-22T00:00:01.731Z,77.26
2017-01-22T00:00:31.753Z,76.98
2017-01-22T00:01:01.781Z,77.07
2017-01-22T00:01:31.800Z,77.17
2017-01-22T00:02:01.982Z,76.84
2017-01-22T00:02:31.856Z,77.17
2017-01-22T00:03:02.088Z,76.94
2017-01-22T00:03:31.918Z,76.94
2017-01-22T00:04:02.147Z,76.94
2017-01-22T00:04:31.965Z,76.94
2017-01-22T00:05:02.190Z,76.94
2017-01-22T00:05:32.022Z,77.17
2017-01-22T00:06:02.406Z,77.12
2017-01-22T00:06:32.069Z,77.03
2017-01-22T00:07:02.205Z,77.03
2017-01-22T00:07:32.126Z,77.03
2017-01-22T00:08:02.403Z,76.84
2017-01-22T00:08:32.177Z,76.75
2017-01-22T00:09:02.503Z,76.75
2017-01-22T00:09:32.235Z,77.03
2017-01-22T00:10:02.414Z,77.12
2017-01-22T00:10:32.291Z,77.07
2017-01-22T00:11:02.514Z,77.12
2017-01-22T00:11:32.345Z,77.12
2017-01-22T00:12:02.367Z,76.98
2017-01-22T00:12:32.406Z,76.94
2017-01-22T00:13:02.428Z,76.75
2017-01-22T00:13:32.445Z,76.28
2017-01-22T00:14:02.483Z,76.94
2017-01-22T00:14:32.505Z,76.84
2017-01-22T00:15:02.638Z,76.84
2017-01-22T00:15:32.564Z,77.03
2017-01-22T00:16:02.884Z,76.56
2017-01-22T00:16:32.615Z,76.18
2017-01-22T00:17:02.840Z,76.94
2017-01-22T00:17:32.664Z,76.37
2017-01-22T00:18:02.839Z,76.28
2017-01-22T00:18:32.715Z,76.09
2017-01-22T00:19:02.799Z,76.28
2017-01-22T00:19:32.770Z,76.84
2017-01-22T00:20:02.796Z,76.84
2017-01-22T00:20:32.821Z,76.56
2017-01-22T00:21:02.853Z,76.18
2017-01-22T00:21:32.876Z,76.09
2017-01-22T00:22:02.953Z,76.46
2017-01-22T00:22:32.930Z,76.75
2017-01-22T00:23:03.206Z,76.65
2017-01-22T00:23:32.984Z,76.84
2017-01-22T00:24:03.013Z,76.94
2017-01-22T00:24:33.035Z,76.75
2017-01-22T00:25:03.212Z,76.84
2017-01-22T00:25:33.096Z,76.75
2017-01-22T00:26:03.167Z,76.75
2017-01-22T00:26:33.140Z,76.65
2017-01-22T00:27:03.183Z,76.94
2017-01-22T00:27:33.205Z,77.03
2017-01-22T00:28:03.227Z,76.84
2017-01-22T00:28:33.249Z,76.65
2017-01-22T00:29:03.276Z,76.75
2017-01-22T00:29:33.301Z,77.22
2017-01-22T00:30:03.333Z,76.84
2017-01-22T00:30:33.355Z,76.75
2017-01-22T00:31:03.384Z,77.03
2017-01-22T00:31:33.409Z,76.94
2017-01-22T00:32:03.438Z,76.84
2017-01-22T00:32:33.464Z,76.56
2017-01-22T00:33:03.489Z,77.03
2017-01-22T00:33:33.517Z,76.94
2017-01-22T00:34:03.545Z,76.75
2017-01-22T00:34:33.570Z,76.65
2017-01-22T00:35:03.600Z,76.18
2017-01-22T00:35:33.627Z,76.18
2017-01-22T00:36:03.654Z,76.65
2017-01-22T00:36:33.688Z,76.75
2017-01-22T00:37:03.704Z,76.75
2017-01-22T00:37:33.729Z,76.94
2017-01-22T00:38:03.754Z,76.75
2017-01-22T00:38:33.782Z,76.18
2017-01-22T00:39:03.814Z,76.84
2017-01-22T00:39:33.839Z,77.03
2017-01-22T00:40:03.868Z,76.94
2017-01-22T00:40:33.891Z,76.18
2017-01-22T00:41:03.915Z,76.75
2017-01-22T00:41:33.945Z,76.75
2017-01-22T00:42:03.971Z,77.12
2017-01-22T00:42:33.995Z,77.22
2017-01-22T00:43:04.025Z,76.94
2017-01-22T00:43:34.049Z,76.84
2017-01-22T00:44:04.076Z,77.12
2017-01-22T00:44:34.105Z,76.84
2017-01-22T00:45:04.133Z,77.03
2017-01-22T00:45:34.159Z,76.94
2017-01-22T00:46:04.181Z,76.94
2017-01-22T00:46:34.212Z,76.94
2017-01-22T00:47:04.236Z,76.75
2017-01-22T00:47:34.264Z,76.65
2017-01-22T00:48:04.289Z,76.75
2017-01-22T00:48:34.317Z,77.22
2017-01-22T00:49:04.345Z,77.12
2017-01-22T00:49:34.375Z,77.12
2017-01-22T00:50:04.396Z,77.03
2017-01-22T00:50:34.423Z,77.31
2017-01-22T00:51:04.450Z,77.6
2017-01-22T00:51:34.481Z,77.41
2017-01-22T00:52:04.507Z,77.41
2017-01-22T00:52:34.529Z,77.6
2017-01-22T00:53:04.557Z,77.41
2017-01-22T00:53:34.587Z,77.5
2017-01-22T00:54:04.617Z,77.41
2017-01-22T00:54:34.638Z,77.6
2017-01-22T00:55:04.665Z,77.41
2017-01-22T00:55:34.721Z,77.12
2017-01-22T00:56:04.717Z,77.12
2017-01-22T00:56:34.740Z,77.03
2017-01-22T00:57:04.767Z,77.03
2017-01-22T00:57:34.799Z,76.94
2017-01-22T00:58:04.849Z,76.65
2017-01-22T00:58:34.851Z,76.75
2017-01-22T00:59:04.887Z,77.41
2017-01-22T00:59:34.908Z,76.75
2017-01-22T01:00:04.957Z,76.75
2017-01-22T01:00:34.956Z,76.46
2017-01-22T01:01:04.989Z,76.65
2017-01-22T01:01:35.016Z,76.18
2017-01-22T01:02:05.040Z,76.75
2017-01-22T01:02:35.064Z,77.03
2017-01-22T01:03:05.091Z,76.75
2017-01-22T01:03:35.123Z,76.84
2017-01-22T01:04:05.150Z,76.94
2017-01-22T01:04:35.175Z,76.28
2017-01-22T01:05:05.202Z,76.37
2017-01-22T01:05:35.227Z,76.28
2017-01-22T01:06:05.253Z,76.65
2017-01-22T01:06:35.284Z,76.28
2017-01-22T01:07:05.306Z,76.56
2017-01-22T01:07:35.329Z,76.18
2017-01-22T01:08:05.362Z,76.28
2017-01-22T01:08:35.388Z,75.9
2017-01-22T01:09:05.414Z,75.71
2017-01-22T01:09:35.441Z,75.99
2017-01-22T01:10:05.474Z,75.9
2017-01-22T01:10:35.489Z,75.9
2017-01-22T01:11:05.522Z,76.09
2017-01-22T01:11:35.546Z,75.9
2017-01-22T01:12:05.575Z,76.09
2017-01-22T01:12:35.597Z,75.81
2017-01-22T01:13:05.626Z,75.99
2017-01-22T01:13:35.652Z,76.09
2017-01-22T01:14:05.678Z,76.37
2017-01-22T01:14:35.707Z,76.46
2017-01-22T01:15:05.730Z,76.37
2017-01-22T01:15:35.758Z,76.28
2017-01-22T01:16:05.783Z,76.75
2017-01-22T01:16:35.813Z,76.94
2017-01-22T01:17:05.840Z,76.84
2017-01-22T01:17:35.865Z,76.75
2017-01-22T01:18:05.894Z,76.84
2017-01-22T01:18:35.919Z,76.94
2017-01-22T01:19:05.943Z,77.03
2017-01-22T01:19:35.968Z,76.94
2017-01-22T01:20:05.995Z,76.84
2017-01-22T01:20:36.025Z,76.84
2017-01-22T01:21:06.049Z,76.18
2017-01-22T01:21:36.077Z,76.84
2017-01-22T01:22:06.104Z,76.84
2017-01-22T01:22:36.133Z,76.56
2017-01-22T01:23:06.152Z,77.03
2017-01-22T01:23:36.184Z,76.94
2017-01-22T01:24:06.214Z,76.94
2017-01-22T01:24:36.235Z,76.94
2017-01-22T01:25:06.261Z,76.94
2017-01-22T01:25:36.288Z,77.03
2017-01-22T01:26:06.316Z,76.84
2017-01-22T01:26:36.341Z,77.03
2017-01-22T01:27:06.369Z,76.75
2017-01-22T01:27:36.395Z,76.65
2017-01-22T01:28:06.426Z,76.75
2017-01-22T01:28:36.451Z,76.65
2017-01-22T01:29:06.477Z,76.28
2017-01-22T01:29:36.505Z,76.56
2017-01-22T01:30:06.530Z,76.18
2017-01-22T01:30:36.553Z,76.37
2017-01-22T01:31:06.582Z,76.28
2017-01-22T01:31:36.609Z,76.28
2017-01-22T01:32:06.636Z,76.46
2017-01-22T01:32:36.661Z,76.28
2017-01-22T01:33:06.687Z,76.28
2017-01-22T01:33:36.716Z,76.28
2017-01-22T01:34:06.745Z,76.56
2017-01-22T01:34:36.768Z,76.84
2017-01-22T01:35:06.793Z,76.65
2017-01-22T01:35:36.818Z,76.09
2017-01-22T01:36:06.859Z,76.94
2017-01-22T01:36:36.873Z,76.18
2017-01-22T01:37:06.925Z,76.75
2017-01-22T01:37:36.924Z,76.75
2017-01-22T01:38:06.951Z,77.03
2017-01-22T01:38:36.983Z,76.56
2017-01-22T01:39:07.008Z,76.37
2017-01-22T01:39:37.027Z,76.75
2017-01-22T01:40:07.059Z,76.94
2017-01-22T01:40:37.091Z,76.84
2017-01-22T01:41:07.141Z,77.41
2017-01-22T01:41:37.137Z,76.75
2017-01-22T01:42:07.165Z,77.03
2017-01-22T01:42:37.195Z,76.84
2017-01-22T01:43:07.241Z,77.03
2017-01-22T01:43:37.246Z,76.84
2017-01-22T01:44:07.270Z,76.84
2017-01-22T01:44:37.302Z,77.03
2017-01-22T01:45:07.326Z,77.03
2017-01-22T01:45:37.353Z,77.03
2017-01-22T01:46:07.378Z,76.94
2017-01-22T01:46:37.404Z,77.31
2017-01-22T01:47:07.432Z,76.75
2017-01-22T01:47:37.467Z,76.75
2017-01-22T01:48:07.487Z,76.94
2017-01-22T01:48:37.512Z,76.75
2017-01-22T01:49:07.538Z,76.65
2017-01-22T01:49:37.570Z,76.18
2017-01-22T01:50:07.592Z,76.94
2017-01-22T01:50:37.614Z,76.37
2017-01-22T01:51:07.642Z,77.03
2017-01-22T01:51:37.671Z,76.65
2017-01-22T01:52:07.696Z,76.84
2017-01-22T01:52:37.724Z,76.18
2017-01-22T01:53:07.756Z,76.65
2017-01-22T01:53:37.777Z,76.28
2017-01-22T01:54:07.803Z,76.46
2017-01-22T01:54:37.836Z,76.28
2017-01-22T01:55:07.860Z,76.28
2017-01-22T01:55:37.883Z,76.84
2017-01-22T01:56:07.910Z,76.46
2017-01-22T01:56:37.936Z,76.28
2017-01-22T01:57:07.965Z,76.46
2017-01-22T01:57:37.988Z,76.09
2017-01-22T01:58:08.017Z,75.99
2017-01-22T01:58:38.045Z,75.99
2017-01-22T01:59:08.070Z,75.9
2017-01-22T01:59:38.101Z,75.9
2017-01-22T02:00:08.121Z,76.28
2017-01-22T02:00:38.144Z,75.99
2017-01-22T02:01:08.181Z,76.09
2017-01-22T02:01:38.203Z,76.46
2017-01-22T02:02:08.230Z,76.56
2017-01-22T02:02:38.254Z,76.37
2017-01-22T02:03:08.286Z,76.75
2017-01-22T02:03:38.309Z,76.18
2017-01-22T02:04:08.335Z,76.65
2017-01-22T02:04:38.374Z,76.09
2017-01-22T02:05:08.394Z,76.28
2017-01-22T02:05:38.415Z,76.28
2017-01-22T02:06:08.443Z,76.65
2017-01-22T02:06:38.471Z,76.28
2017-01-22T02:07:08.495Z,76.37
2017-01-22T02:07:38.523Z,76.37
2017-01-22T02:08:08.549Z,76.28
2017-01-22T02:08:38.589Z,76.56
2017-01-22T02:09:08.605Z,76.56
2017-01-22T02:09:38.629Z,76.75
2017-01-22T02:10:08.656Z,76.18
2017-01-22T02:10:38.683Z,76.18
2017-01-22T02:11:08.712Z,76.46
2017-01-22T02:11:38.739Z,76.37
2017-01-22T02:12:08.762Z,76.28
2017-01-22T02:12:38.786Z,76.28
2017-01-22T02:13:08.815Z,76.18
2017-01-22T02:13:38.842Z,76.09
2017-01-22T02:14:08.867Z,76.37
2017-01-22T02:14:38.896Z,76.37
2017-01-22T02:15:08.923Z,76.09
2017-01-22T02:15:38.956Z,77.03
2017-01-22T02:16:08.975Z,76.84
2017-01-22T02:16:39.005Z,77.12
2017-01-22T02:17:09.031Z,76.09
2017-01-22T02:17:39.059Z,76.75
2017-01-22T02:18:09.084Z,76.56
2017-01-22T02:18:39.111Z,77.12
2017-01-22T02:19:09.136Z,76.56
2017-01-22T02:19:39.166Z,76.65
2017-01-22T02:20:09.189Z,76.84
2017-01-22T02:20:39.214Z,77.31
2017-01-22T02:21:09.238Z,77.31
2017-01-22T02:21:39.269Z,77.03
2017-01-22T02:22:09.291Z,77.03
2017-01-22T02:22:39.328Z,77.12
2017-01-22T02:23:09.348Z,77.03
2017-01-22T02:23:39.375Z,77.03
2017-01-22T02:24:09.399Z,77.03
2017-01-22T02:24:39.427Z,77.31
2017-01-22T02:25:09.459Z,77.41
2017-01-22T02:25:39.477Z,77.41
2017-01-22T02:26:09.513Z,77.31
2017-01-22T02:26:39.542Z,77.31
2017-01-22T02:27:09.562Z,77.41
2017-01-22T02:27:39.596Z,77.41
2017-01-22T02:28:09.612Z,77.31
2017-01-22T02:28:39.647Z,77.6
2017-01-22T02:29:09.665Z,77.31
2017-01-22T02:29:39.696Z,77.12
2017-01-22T02:30:09.717Z,77.31
2017-01-22T02:30:39.747Z,77.31
2017-01-22T02:31:09.775Z,77.03
2017-01-22T02:31:39.803Z,77.69
2017-01-22T02:32:09.827Z,77.22
2017-01-22T02:32:39.854Z,77.69
2017-01-22T02:33:09.883Z,77.22
2017-01-22T02:33:39.915Z,77.03
2017-01-22T02:34:09.940Z,76.94
2017-01-22T02:34:39.964Z,76.84
2017-01-22T02:35:09.987Z,76.84
2017-01-22T02:35:40.016Z,77.12
2017-01-22T02:36:10.041Z,77.22
2017-01-22T02:36:40.073Z,76.94
2017-01-22T02:37:10.105Z,76.75
2017-01-22T02:37:40.120Z,77.12
2017-01-22T02:38:10.156Z,76.94
2017-01-22T02:38:40.180Z,77.22
2017-01-22T02:39:10.204Z,77.12
2017-01-22T02:39:40.234Z,76.75
2017-01-22T02:40:10.254Z,76.75
2017-01-22T02:40:40.281Z,76.94
2017-01-22T02:41:10.310Z,76.84
2017-01-22T02:41:40.336Z,76.94
2017-01-22T02:42:10.364Z,77.12
2017-01-22T02:42:40.393Z,77.5
2017-01-22T02:43:10.425Z,76.65
2017-01-22T02:43:40.445Z,76.94
2017-01-22T02:44:10.474Z,76.65
2017-01-22T02:44:40.502Z,77.22
2017-01-22T02:45:10.525Z,76.75
2017-01-22T02:45:40.573Z,76.75
2017-01-22T02:46:10.576Z,76.94
2017-01-22T02:46:40.601Z,76.75
2017-01-22T02:47:10.633Z,76.65
2017-01-22T02:47:40.660Z,76.65
2017-01-22T02:48:10.682Z,76.84
2017-01-22T02:48:40.711Z,76.84
2017-01-22T02:49:10.736Z,76.94
2017-01-22T02:49:40.764Z,76.94
2017-01-22T02:50:10.794Z,76.56
2017-01-22T02:50:40.824Z,76.28
2017-01-22T02:51:10.852Z,76.37
2017-01-22T02:51:40.873Z,76.75
2017-01-22T02:52:10.898Z,76.65
2017-01-22T02:52:40.927Z,76.37
2017-01-22T02:53:10.954Z,76.65
2017-01-22T02:53:41.008Z,76.28
2017-01-22T02:54:11.007Z,76.37
2017-01-22T02:54:41.031Z,76.37
2017-01-22T02:55:11.074Z,76.56
2017-01-22T02:55:41.087Z,76.75
2017-01-22T02:56:11.117Z,76.75
2017-01-22T02:56:41.148Z,76.65
2017-01-22T02:57:11.164Z,76.94
2017-01-22T02:57:41.195Z,76.75
2017-01-22T02:58:11.221Z,76.75
2017-01-22T02:58:41.248Z,76.75
2017-01-22T02:59:11.286Z,76.18
2017-01-22T02:59:41.304Z,76.18
2017-01-22T03:00:11.329Z,76.75
2017-01-22T03:00:41.353Z,76.94
2017-01-22T03:01:11.383Z,76.18
2017-01-22T03:01:41.412Z,76.94
2017-01-22T03:02:11.436Z,76.84
2017-01-22T03:02:41.460Z,76.18
2017-01-22T03:03:11.492Z,76.75
2017-01-22T03:03:41.515Z,76.84
2017-01-22T03:04:11.547Z,76.65
2017-01-22T03:04:41.567Z,76.84
2017-01-22T03:05:11.594Z,76.37
2017-01-22T03:05:41.630Z,76.84
2017-01-22T03:06:11.653Z,76.37
2017-01-22T03:06:41.676Z,76.84
2017-01-22T03:07:11.704Z,76.56
2017-01-22T03:07:41.731Z,76.28
2017-01-22T03:08:11.755Z,76.09
2017-01-22T03:08:41.782Z,76.65
2017-01-22T03:09:11.817Z,76.94
2017-01-22T03:09:41.837Z,76.18
2017-01-22T03:10:11.866Z,76.28
2017-01-22T03:10:41.894Z,76.56
2017-01-22T03:11:11.918Z,76.56
2017-01-22T03:11:41.946Z,76.56
2017-01-22T03:12:11.972Z,76.46
2017-01-22T03:12:41.996Z,76.37
2017-01-22T03:13:12.022Z,76.46
2017-01-22T03:13:42.045Z,76.46
2017-01-22T03:14:12.081Z,76.28
2017-01-22T03:14:42.101Z,76.46
2017-01-22T03:15:12.132Z,76.46
2017-01-22T03:15:42.160Z,76.28
2017-01-22T03:16:12.185Z,76.28
2017-01-22T03:16:42.214Z,76.37
2017-01-22T03:17:12.238Z,76.56
2017-01-22T03:17:42.264Z,76.56
2017-01-22T03:18:12.297Z,76.09
2017-01-22T03:18:42.319Z,76.46
2017-01-22T03:19:12.348Z,76.18
2017-01-22T03:19:42.374Z,76.65
2017-01-22T03:20:12.397Z,76.94
2017-01-22T03:20:42.428Z,77.03
2017-01-22T03:21:12.452Z,76.56
2017-01-22T03:21:42.480Z,75.99
2017-01-22T03:22:12.506Z,76.75
2017-01-22T03:22:42.536Z,76.46
2017-01-22T03:23:12.559Z,76.65
2017-01-22T03:23:42.589Z,76.65
2017-01-22T03:24:12.610Z,76.46
2017-01-22T03:24:42.640Z,76.56
2017-01-22T03:25:12.665Z,76.46
2017-01-22T03:25:42.695Z,76.46
2017-01-22T03:26:12.722Z,76.28
2017-01-22T03:26:42.747Z,76.46
2017-01-22T03:27:12.777Z,76.56
2017-01-22T03:27:42.801Z,76.28
2017-01-22T03:28:12.826Z,76.46
2017-01-22T03:28:42.850Z,76.28
2017-01-22T03:29:12.883Z,76.37
2017-01-22T03:29:42.904Z,76.75
2017-01-22T03:30:12.937Z,76.46
2017-01-22T03:30:42.988Z,76.56
2017-01-22T03:31:13.017Z,76.56
2017-01-22T03:31:43.014Z,76.56
2017-01-22T03:32:13.041Z,76.28
2017-01-22T03:32:43.070Z,76.56
2017-01-22T03:33:13.088Z,76.28
2017-01-22T03:33:43.117Z,76.28
2017-01-22T03:34:13.138Z,76.56
2017-01-22T03:34:43.173Z,76.56
2017-01-22T03:35:13.195Z,76.37
2017-01-22T03:35:43.224Z,76.28
2017-01-22T03:36:13.248Z,76.09
2017-01-22T03:36:43.287Z,76.28
2017-01-22T03:37:13.324Z,75.9
2017-01-22T03:37:43.333Z,75.9
2017-01-22T03:38:13.357Z,75.9
2017-01-22T03:38:43.382Z,75.9
2017-01-22T03:39:13.413Z,75.9
2017-01-22T03:39:43.437Z,76.28
2017-01-22T03:40:13.470Z,76.09
2017-01-22T03:40:43.495Z,76.18
2017-01-22T03:41:13.515Z,76.09
2017-01-22T03:41:43.540Z,76.09
2017-01-22T03:42:13.572Z,76.18
2017-01-22T03:42:43.600Z,76.18
2017-01-22T03:43:13.624Z,75.99
2017-01-22T03:43:43.655Z,76.37
2017-01-22T03:44:13.678Z,76.46
2017-01-22T03:44:43.704Z,76.28
2017-01-22T03:45:13.736Z,76.46
2017-01-22T03:45:43.761Z,76.18
2017-01-22T03:46:13.786Z,76.56
2017-01-22T03:46:43.809Z,76.75
2017-01-22T03:47:13.839Z,76.18
2017-01-22T03:47:43.864Z,76.37
2017-01-22T03:48:13.892Z,76.37
2017-01-22T03:48:43.917Z,76.46
2017-01-22T03:49:13.946Z,76.46
2017-01-22T03:49:43.967Z,76.28
2017-01-22T03:50:13.990Z,76.46
2017-01-22T03:50:44.025Z,76.56
2017-01-22T03:51:14.053Z,76.37
2017-01-22T03:51:44.074Z,76.37
2017-01-22T03:52:14.106Z,76.09
2017-01-22T03:52:44.135Z,75.9
2017-01-22T03:53:14.157Z,76.18
2017-01-22T03:53:44.184Z,76.18
2017-01-22T03:54:14.222Z,76.18
2017-01-22T03:54:44.237Z,75.99
2017-01-22T03:55:14.264Z,76.28
2017-01-22T03:55:44.293Z,76.46
2017-01-22T03:56:14.318Z,76.37
2017-01-22T03:56:44.343Z,76.28
2017-01-22T03:57:14.392Z,76.28
2017-01-22T03:57:44.392Z,76.46
2017-01-22T03:58:14.421Z,76.37
2017-01-22T03:58:44.451Z,76.37
2017-01-22T03:59:14.477Z,76.75
2017-01-22T03:59:44.503Z,76.56
2017-01-22T04:00:14.525Z,76.65
2017-01-22T04:00:44.550Z,76.56
2017-01-22T04:01:14.579Z,76.56
2017-01-22T04:01:44.606Z,76.56
2017-01-22T04:02:14.635Z,76.56
2017-01-22T04:02:44.663Z,76.56
2017-01-22T04:03:14.688Z,76.56
2017-01-22T04:03:44.714Z,76.65
2017-01-22T04:04:14.741Z,76.65
2017-01-22T04:04:44.772Z,76.37
2017-01-22T04:05:14.795Z,76.46
2017-01-22T04:05:44.826Z,76.65
2017-01-22T04:06:14.849Z,76.37
2017-01-22T04:06:44.874Z,76.56
2017-01-22T04:07:14.901Z,76.65
2017-01-22T04:07:44.926Z,76.75
2017-01-22T04:08:14.955Z,76.18
2017-01-22T04:08:44.982Z,76.65
2017-01-22T04:09:15.008Z,76.37
2017-01-22T04:09:45.035Z,76.28
2017-01-22T04:10:15.056Z,76.28
2017-01-22T04:10:45.082Z,76.28
2017-01-22T04:11:15.411Z,76.37
2017-01-22T04:11:45.137Z,76.56
2017-01-22T04:12:15.169Z,76.28
2017-01-22T04:12:45.196Z,76.65
2017-01-22T04:13:15.222Z,76.28
2017-01-22T04:13:45.247Z,76.84
2017-01-22T04:14:15.270Z,76.18
2017-01-22T04:14:45.303Z,76.18
2017-01-22T04:15:15.325Z,76.18
2017-01-22T04:15:45.353Z,76.09
2017-01-22T04:16:15.377Z,76.75
2017-01-22T04:16:45.400Z,76.28
2017-01-22T04:17:15.429Z,76.37
2017-01-22T04:17:45.459Z,76.28
2017-01-22T04:18:15.489Z,76.37
2017-01-22T04:18:45.517Z,76.75
2017-01-22T04:19:15.567Z,76.84
2017-01-22T04:19:45.562Z,76.84
2017-01-22T04:20:15.591Z,76.84
2017-01-22T04:20:45.618Z,76.56
2017-01-22T04:21:15.643Z,76.75
2017-01-22T04:21:45.669Z,77.03
2017-01-22T04:22:15.695Z,76.84
2017-01-22T04:22:45.725Z,76.75
2017-01-22T04:23:15.749Z,76.94
2017-01-22T04:23:45.782Z,77.12
2017-01-22T04:24:15.826Z,76.94
2017-01-22T04:24:45.829Z,76.37
2017-01-22T04:25:15.857Z,76.46
2017-01-22T04:25:45.884Z,76.46
2017-01-22T04:26:15.922Z,76.84
2017-01-22T04:26:45.938Z,77.31
2017-01-22T04:27:15.969Z,76.94
2017-01-22T04:27:45.993Z,76.84
2017-01-22T04:28:16.017Z,76.84
2017-01-22T04:28:46.043Z,76.75
2017-01-22T04:29:16.066Z,77.22
2017-01-22T04:29:46.098Z,76.75
2017-01-22T04:30:16.122Z,76.94
2017-01-22T04:30:46.151Z,76.94
2017-01-22T04:31:16.178Z,76.75
2017-01-22T04:31:46.201Z,76.84
2017-01-22T04:32:16.233Z,76.84
2017-01-22T04:32:46.259Z,76.84
2017-01-22T04:33:16.286Z,76.84
2017-01-22T04:33:46.314Z,76.75
2017-01-22T04:34:16.337Z,76.94
2017-01-22T04:34:46.362Z,76.94
2017-01-22T04:35:16.391Z,76.94
2017-01-22T04:35:46.418Z,76.84
2017-01-22T04:36:16.449Z,76.75
2017-01-22T04:36:47.473Z,76.75
2017-01-22T04:37:16.493Z,77.12
2017-01-22T04:37:46.530Z,77.22
2017-01-22T04:38:16.562Z,77.03
2017-01-22T04:38:46.577Z,77.12
2017-01-22T04:39:16.602Z,76.84
2017-01-22T04:39:46.636Z,77.22
2017-01-22T04:40:16.659Z,77.6
2017-01-22T04:40:46.686Z,77.41
2017-01-22T04:41:16.713Z,77.41
2017-01-22T04:41:46.738Z,77.5
2017-01-22T04:42:16.764Z,77.5
2017-01-22T04:42:46.795Z,77.31
2017-01-22T04:43:16.819Z,77.41
2017-01-22T04:43:46.845Z,77.31
2017-01-22T04:44:16.870Z,77.31
2017-01-22T04:44:46.902Z,77.41
2017-01-22T04:45:16.925Z,77.12
2017-01-22T04:45:46.950Z,77.31
2017-01-22T04:46:16.980Z,77.22
2017-01-22T04:46:47.006Z,77.31
2017-01-22T04:47:17.032Z,77.5
2017-01-22T04:47:47.056Z,77.6
2017-01-22T04:48:17.087Z,77.31
2017-01-22T04:48:47.110Z,76.84
2017-01-22T04:49:17.148Z,77.12
2017-01-22T04:49:47.167Z,76.84
2017-01-22T04:50:17.194Z,76.84
2017-01-22T04:50:47.220Z,77.03
2017-01-22T04:51:17.243Z,77.12
2017-01-22T04:51:47.272Z,76.75
2017-01-22T04:52:17.301Z,76.84
2017-01-22T04:52:47.324Z,77.12
2017-01-22T04:53:17.353Z,76.94
2017-01-22T04:53:47.384Z,77.12
2017-01-22T04:54:17.412Z,77.12
2017-01-22T04:54:47.440Z,76.84
2017-01-22T04:55:17.462Z,77.12
2017-01-22T04:55:47.484Z,77.03
2017-01-22T04:56:17.513Z,77.12
2017-01-22T04:56:47.542Z,77.03
2017-01-22T04:57:17.569Z,77.22
2017-01-22T04:57:47.599Z,77.03
2017-01-22T04:58:17.626Z,77.22
2017-01-22T04:58:47.656Z,76.75
2017-01-22T04:59:17.678Z,76.65
2017-01-22T04:59:47.702Z,76.75
2017-01-22T05:00:17.727Z,76.84
2017-01-22T05:00:47.758Z,76.94
2017-01-22T05:01:17.782Z,76.84
2017-01-22T05:01:47.816Z,76.75
2017-01-22T05:02:17.836Z,76.75
2017-01-22T05:02:47.865Z,76.84
2017-01-22T05:03:17.890Z,76.84
2017-01-22T05:03:47.918Z,76.46
2017-01-22T05:04:17.941Z,77.41
2017-01-22T05:04:47.969Z,77.03
2017-01-22T05:05:17.992Z,76.94
2017-01-22T05:05:48.032Z,76.94
2017-01-22T05:06:18.055Z,77.22
2017-01-22T05:06:48.075Z,76.65
2017-01-22T05:07:18.104Z,76.84
2017-01-22T05:07:48.185Z,76.94
2017-01-22T05:08:18.157Z,76.94
2017-01-22T05:08:48.185Z,77.03
2017-01-22T05:09:18.208Z,76.75
2017-01-22T05:09:48.238Z,76.94
2017-01-22T05:10:18.259Z,76.75
2017-01-22T05:10:48.288Z,77.31
2017-01-22T05:11:18.317Z,77.22
2017-01-22T05:11:48.342Z,76.75
2017-01-22T05:12:18.374Z,76.94
2017-01-22T05:12:48.399Z,77.03
2017-01-22T05:13:18.431Z,77.12
2017-01-22T05:13:48.451Z,76.94
2017-01-22T05:14:18.473Z,77.03
2017-01-22T05:14:48.502Z,76.94
2017-01-22T05:15:18.536Z,76.94
2017-01-22T05:15:48.561Z,77.31
2017-01-22T05:16:18.579Z,77.12
2017-01-22T05:16:48.609Z,77.12
2017-01-22T05:17:18.636Z,77.22
2017-01-22T05:17:48.667Z,77.31
2017-01-22T05:18:18.690Z,77.31
2017-01-22T05:18:48.722Z,77.31
2017-01-22T05:19:18.744Z,77.31
2017-01-22T05:19:48.771Z,77.31
2017-01-22T05:20:18.805Z,77.31
2017-01-22T05:20:48.832Z,77.12
2017-01-22T05:21:18.852Z,77.31
2017-01-22T05:21:48.880Z,77.12
2017-01-22T05:22:18.906Z,77.22
2017-01-22T05:22:48.933Z,76.84
2017-01-22T05:23:18.959Z,77.03
2017-01-22T05:23:48.987Z,76.84
2017-01-22T05:24:19.015Z,77.03
2017-01-22T05:24:49.042Z,77.12
2017-01-22T05:25:19.065Z,77.12
2017-01-22T05:25:49.095Z,77.03
2017-01-22T05:26:19.126Z,76.94
2017-01-22T05:26:49.148Z,76.65
2017-01-22T05:27:19.177Z,76.75
2017-01-22T05:27:49.202Z,77.12
2017-01-22T05:28:19.233Z,76.84
2017-01-22T05:28:49.255Z,76.94
2017-01-22T05:29:19.283Z,76.75
2017-01-22T05:29:49.310Z,76.94
2017-01-22T05:30:19.330Z,76.56
2017-01-22T05:30:49.360Z,76.84
2017-01-22T05:31:19.388Z,76.65
2017-01-22T05:31:49.413Z,76.84
2017-01-22T05:32:19.442Z,76.75
2017-01-22T05:32:49.466Z,76.84
2017-01-22T05:33:19.496Z,76.84
2017-01-22T05:33:49.516Z,77.12
2017-01-22T05:34:19.555Z,77.12
2017-01-22T05:34:49.576Z,77.03
2017-01-22T05:35:19.602Z,76.84
2017-01-22T05:35:49.626Z,77.03
2017-01-22T05:36:19.655Z,77.03
2017-01-22T05:36:49.684Z,77.12
2017-01-22T05:37:19.709Z,76.84
2017-01-22T05:37:49.770Z,76.84
2017-01-22T05:38:19.766Z,76.84
2017-01-22T05:38:49.788Z,77.31
2017-01-22T05:39:19.814Z,77.31
2017-01-22T05:39:49.849Z,77.31
2017-01-22T05:40:19.875Z,77.31
2017-01-22T05:40:49.892Z,77.6
2017-01-22T05:41:19.950Z,77.6
2017-01-22T05:41:49.949Z,77.69
2017-01-22T05:42:19.975Z,77.6
2017-01-22T05:42:50.008Z,77.6
2017-01-22T05:43:20.025Z,77.5
2017-01-22T05:43:50.053Z,77.5
2017-01-22T05:44:20.082Z,77.6
2017-01-22T05:44:50.109Z,77.6
2017-01-22T05:45:20.136Z,77.5
2017-01-22T05:45:50.171Z,77.41
2017-01-22T05:46:20.200Z,77.41
2017-01-22T05:46:50.213Z,77.69
2017-01-22T05:47:20.244Z,77.6
2017-01-22T05:47:50.268Z,77.5
2017-01-22T05:48:20.295Z,77.6
2017-01-22T05:48:50.323Z,77.41
2017-01-22T05:49:20.348Z,77.69
2017-01-22T05:49:50.380Z,77.5
2017-01-22T05:50:20.403Z,77.6
2017-01-22T05:50:50.427Z,77.5
2017-01-22T05:51:20.457Z,77.41
2017-01-22T05:51:50.482Z,77.22
2017-01-22T05:52:20.512Z,77.22
2017-01-22T05:52:50.537Z,77.41
2017-01-22T05:53:20.564Z,77.78
2017-01-22T05:53:50.640Z,77.41
2017-01-22T05:54:20.614Z,78.07
2017-01-22T05:54:50.640Z,77.78
2017-01-22T05:55:20.670Z,77.69
2017-01-22T05:55:50.699Z,77.97
2017-01-22T05:56:20.721Z,78.07
2017-01-22T05:56:50.753Z,77.97
2017-01-22T05:57:20.777Z,77.88
2017-01-22T05:57:50.802Z,77.92
2017-01-22T05:58:20.828Z,78.26
2017-01-22T05:58:50.858Z,77.88
2017-01-22T05:59:20.881Z,78.02
2017-01-22T05:59:50.913Z,78.02
2017-01-22T06:00:20.946Z,78.11
2017-01-22T06:00:50.969Z,78.02
2017-01-22T06:01:20.994Z,78.16
2017-01-22T06:01:51.014Z,78.2
2017-01-22T06:02:21.072Z,78.02
2017-01-22T06:02:51.072Z,78.11
2017-01-22T06:03:21.099Z,77.92
2017-01-22T06:03:51.124Z,77.45
2017-01-22T06:04:21.153Z,77.92
2017-01-22T06:04:51.180Z,77.55
2017-01-22T06:05:21.207Z,77.41
2017-01-22T06:05:51.234Z,77.36
2017-01-22T06:06:21.261Z,77.45
2017-01-22T06:06:51.290Z,77.64
2017-01-22T06:07:21.320Z,77.55
2017-01-22T06:07:51.350Z,77.36
2017-01-22T06:08:21.368Z,77.55
2017-01-22T06:08:51.397Z,77.45
2017-01-22T06:09:21.421Z,77.41
2017-01-22T06:09:51.450Z,77.36
2017-01-22T06:10:21.479Z,77.36
2017-01-22T06:10:51.510Z,77.26
2017-01-22T06:11:21.529Z,77.45
2017-01-22T06:11:51.560Z,77.36
2017-01-22T06:12:21.589Z,77.45
2017-01-22T06:12:51.611Z,77.17
2017-01-22T06:13:21.641Z,77.26
2017-01-22T06:13:51.663Z,77.26
2017-01-22T06:14:21.693Z,77.36
2017-01-22T06:14:51.723Z,77.41
2017-01-22T06:15:21.752Z,77.41
2017-01-22T06:15:51.773Z,77.5
2017-01-22T06:16:21.796Z,77.41
2017-01-22T06:16:51.830Z,77.41
2017-01-22T06:17:21.861Z,77.41
2017-01-22T06:17:51.880Z,77.41
2017-01-22T06:18:21.912Z,77.5
2017-01-22T06:18:51.932Z,77.6
2017-01-22T06:19:21.963Z,77.41
2017-01-22T06:19:51.987Z,77.41
2017-01-22T06:20:22.011Z,77.31
2017-01-22T06:20:52.038Z,77.41
2017-01-22T06:21:22.066Z,77.22
2017-01-22T06:21:52.096Z,77.5
2017-01-22T06:22:22.128Z,77.41
2017-01-22T06:22:52.149Z,77.41
2017-01-22T06:23:22.179Z,77.12
2017-01-22T06:23:52.211Z,77.41
2017-01-22T06:24:22.224Z,77.41
2017-01-22T06:24:52.255Z,77.22
2017-01-22T06:25:22.289Z,77.22
2017-01-22T06:25:52.309Z,77.41
2017-01-22T06:26:22.338Z,77.31
2017-01-22T06:26:52.366Z,77.69
2017-01-22T06:27:22.413Z,77.97